sensor_id;sensor_type;location;lat;lon;timestamp;temperature;humidity
34147;DHT22;20423;49.448;9.056;2022-11-14T00:02:02;2.80;99.90
34147;DHT22;20423;49.448;9.056;2022-11-14T00:04:47;2.90;99.90
34147;DHT22;20423;49.448;9.056;2022-11-14T00:07:32;2.80;99.90
34147;DHT22;20423;49.448;9.056;2022-11-14T00:10:16;2.70;99.90
34147;DHT22;20423;49.448;9.056;2022-11-14T00:13:00;2.60;99.90
34147;DHT22;20423;49.448;9.056;2022-11-14T00:15:48;2.50;99.90
34147;DHT22;20423;49.448;9.056;2022-11-14T00:18:33;2.50;99.90
34147;DHT22;20423;49.448;9.056;2022-11-14T00:21:17;2.60;99.90
34147;DHT22;20423;49.448;9.056;2022-11-14T00:24:02;2.50;99.90
34147;DHT22;20423;49.448;9.056;2022-11-14T00:26:47;2.50;99.90
34147;DHT22;20423;49.448;9.056;2022-11-14T00:29:31;2.50;99.90
34147;DHT22;20423;49.448;9.056;2022-11-14T00:32:15;2.50;99.90
34147;DHT22;20423;49.448;9.056;2022-11-14T00:34:59;2.50;99.90
34147;DHT22;20423;49.448;9.056;2022-11-14T00:37:43;2.40;99.90
34147;DHT22;20423;49.448;9.056;2022-11-14T00:40:27;2.40;99.90
34147;DHT22;20423;49.448;9.056;2022-11-14T00:43:11;2.40;99.90
34147;DHT22;20423;49.448;9.056;2022-11-14T00:45:56;2.50;99.90
34147;DHT22;20423;49.448;9.056;2022-11-14T00:48:40;2.60;99.90
34147;DHT22;20423;49.448;9.056;2022-11-14T00:51:24;2.80;99.90
34147;DHT22;20423;49.448;9.056;2022-11-14T00:54:07;2.90;99.90
34147;DHT22;20423;49.448;9.056;2022-11-14T00:56:51;3.10;99.90
34147;DHT22;20423;49.448;9.056;2022-11-14T00:59:35;3.20;99.90
34147;DHT22;20423;49.448;9.056;2022-11-14T01:02:20;3.30;99.90
34147;DHT22;20423;49.448;9.056;2022-11-14T01:05:04;3.40;99.90
34147;DHT22;20423;49.448;9.056;2022-11-14T01:07:49;3.50;99.90
34147;DHT22;20423;49.448;9.056;2022-11-14T01:10:33;3.50;99.90
34147;DHT22;20423;49.448;9.056;2022-11-14T01:13:18;3.60;99.90
34147;DHT22;20423;49.448;9.056;2022-11-14T01:16:02;3.60;99.90
34147;DHT22;20423;49.448;9.056;2022-11-14T01:18:47;3.60;99.90
34147;DHT22;20423;49.448;9.056;2022-11-14T01:21:32;3.70;99.90
34147;DHT22;20423;49.448;9.056;2022-11-14T01:24:16;3.80;99.90
34147;DHT22;20423;49.448;9.056;2022-11-14T01:27:00;3.80;99.90
34147;DHT22;20423;49.448;9.056;2022-11-14T01:29:45;3.80;99.90
34147;DHT22;20423;49.448;9.056;2022-11-14T01:32:29;3.80;99.90
34147;DHT22;20423;49.448;9.056;2022-11-14T01:35:13;3.90;99.90
34147;DHT22;20423;49.448;9.056;2022-11-14T01:37:57;3.90;99.90
34147;DHT22;20423;49.448;9.056;2022-11-14T01:40:45;3.90;99.90
34147;DHT22;20423;49.448;9.056;2022-11-14T01:43:34;3.90;99.90
34147;DHT22;20423;49.448;9.056;2022-11-14T01:46:26;3.90;99.90
34147;DHT22;20423;49.448;9.056;2022-11-14T01:52:59;4.00;99.90
34147;DHT22;20423;49.448;9.056;2022-11-14T01:55:44;4.00;99.90
34147;DHT22;20423;49.448;9.056;2022-11-14T01:58:29;4.00;99.90
34147;DHT22;20423;49.448;9.056;2022-11-14T02:01:13;4.00;99.90
34147;DHT22;20423;49.448;9.056;2022-11-14T02:03:59;4.00;99.90
34147;DHT22;20423;49.448;9.056;2022-11-14T02:06:44;4.00;99.90
34147;DHT22;20423;49.448;9.056;2022-11-14T02:09:33;4.00;99.90
34147;DHT22;20423;49.448;9.056;2022-11-14T02:12:18;3.90;99.90
34147;DHT22;20423;49.448;9.056;2022-11-14T02:15:03;3.90;99.90
34147;DHT22;20423;49.448;9.056;2022-11-14T02:18:03;3.90;99.90
34147;DHT22;20423;49.448;9.056;2022-11-14T02:20:47;3.90;99.90
34147;DHT22;20423;49.448;9.056;2022-11-14T02:23:31;3.90;99.90
34147;DHT22;20423;49.448;9.056;2022-11-14T02:26:17;3.80;99.90
34147;DHT22;20423;49.448;9.056;2022-11-14T02:29:02;3.80;99.90
34147;DHT22;20423;49.448;9.056;2022-11-14T02:31:47;3.80;99.90
34147;DHT22;20423;49.448;9.056;2022-11-14T02:34:31;3.80;99.90
34147;DHT22;20423;49.448;9.056;2022-11-14T02:37:16;3.80;99.90
34147;DHT22;20423;49.448;9.056;2022-11-14T02:39:59;3.70;99.90
34147;DHT22;20423;49.448;9.056;2022-11-14T02:42:43;3.70;99.90
34147;DHT22;20423;49.448;9.056;2022-11-14T02:45:27;3.70;99.90
34147;DHT22;20423;49.448;9.056;2022-11-14T02:51:40;3.70;99.90
34147;DHT22;20423;49.448;9.056;2022-11-14T02:54:24;3.70;99.90
34147;DHT22;20423;49.448;9.056;2022-11-14T02:57:08;3.70;99.90
34147;DHT22;20423;49.448;9.056;2022-11-14T02:59:52;3.70;99.90
34147;DHT22;20423;49.448;9.056;2022-11-14T03:02:36;3.60;99.90
34147;DHT22;20423;49.448;9.056;2022-11-14T03:05:21;3.60;99.90
34147;DHT22;20423;49.448;9.056;2022-11-14T03:08:05;3.60;99.90
34147;DHT22;20423;49.448;9.056;2022-11-14T03:10:49;3.60;99.90
34147;DHT22;20423;49.448;9.056;2022-11-14T03:13:34;3.60;99.90
34147;DHT22;20423;49.448;9.056;2022-11-14T03:16:18;3.50;99.90
34147;DHT22;20423;49.448;9.056;2022-11-14T03:19:02;3.50;99.90
34147;DHT22;20423;49.448;9.056;2022-11-14T03:21:47;3.50;99.90
34147;DHT22;20423;49.448;9.056;2022-11-14T03:24:31;3.40;99.90
34147;DHT22;20423;49.448;9.056;2022-11-14T03:27:15;3.30;99.90
34147;DHT22;20423;49.448;9.056;2022-11-14T03:29:59;3.30;99.90
34147;DHT22;20423;49.448;9.056;2022-11-14T03:32:43;3.30;99.90
34147;DHT22;20423;49.448;9.056;2022-11-14T03:35:27;3.20;99.90
34147;DHT22;20423;49.448;9.056;2022-11-14T03:38:11;3.20;99.90
34147;DHT22;20423;49.448;9.056;2022-11-14T03:40:57;3.20;99.90
34147;DHT22;20423;49.448;9.056;2022-11-14T03:43:42;3.20;99.90
34147;DHT22;20423;49.448;9.056;2022-11-14T03:46:26;3.20;99.90
34147;DHT22;20423;49.448;9.056;2022-11-14T03:49:10;3.20;99.90
34147;DHT22;20423;49.448;9.056;2022-11-14T03:51:54;3.20;99.90
34147;DHT22;20423;49.448;9.056;2022-11-14T03:54:38;3.20;99.90
34147;DHT22;20423;49.448;9.056;2022-11-14T03:57:22;3.10;99.90
34147;DHT22;20423;49.448;9.056;2022-11-14T04:00:07;3.10;99.90
34147;DHT22;20423;49.448;9.056;2022-11-14T04:02:53;3.10;99.90
34147;DHT22;20423;49.448;9.056;2022-11-14T04:05:38;3.10;99.90
34147;DHT22;20423;49.448;9.056;2022-11-14T04:08:22;3.10;99.90
34147;DHT22;20423;49.448;9.056;2022-11-14T04:11:07;3.10;99.90
34147;DHT22;20423;49.448;9.056;2022-11-14T04:13:51;3.10;99.90
34147;DHT22;20423;49.448;9.056;2022-11-14T04:16:35;3.10;99.90
34147;DHT22;20423;49.448;9.056;2022-11-14T04:19:19;3.10;99.90
34147;DHT22;20423;49.448;9.056;2022-11-14T04:22:03;3.20;99.90
34147;DHT22;20423;49.448;9.056;2022-11-14T04:24:47;3.20;99.90
34147;DHT22;20423;49.448;9.056;2022-11-14T04:27:31;3.20;99.90
34147;DHT22;20423;49.448;9.056;2022-11-14T04:30:15;3.20;99.90
34147;DHT22;20423;49.448;9.056;2022-11-14T04:32:59;3.20;99.90
34147;DHT22;20423;49.448;9.056;2022-11-14T04:35:43;3.30;99.90
34147;DHT22;20423;49.448;9.056;2022-11-14T04:38:28;3.30;99.90
34147;DHT22;20423;49.448;9.056;2022-11-14T04:41:12;3.30;99.90
34147;DHT22;20423;49.448;9.056;2022-11-14T04:43:57;3.20;99.90
34147;DHT22;20423;49.448;9.056;2022-11-14T04:46:41;3.20;99.90
34147;DHT22;20423;49.448;9.056;2022-11-14T04:49:25;3.20;99.90
34147;DHT22;20423;49.448;9.056;2022-11-14T04:52:09;3.20;99.90
34147;DHT22;20423;49.448;9.056;2022-11-14T04:54:53;3.20;99.90
34147;DHT22;20423;49.448;9.056;2022-11-14T04:57:37;3.10;99.90
34147;DHT22;20423;49.448;9.056;2022-11-14T05:00:21;3.10;99.90
34147;DHT22;20423;49.448;9.056;2022-11-14T05:03:05;3.10;99.90
34147;DHT22;20423;49.448;9.056;2022-11-14T05:05:50;3.10;99.90
34147;DHT22;20423;49.448;9.056;2022-11-14T05:08:34;3.10;99.90
34147;DHT22;20423;49.448;9.056;2022-11-14T05:11:19;3.00;99.90
34147;DHT22;20423;49.448;9.056;2022-11-14T05:14:03;2.90;99.90
34147;DHT22;20423;49.448;9.056;2022-11-14T05:16:47;3.00;99.90
34147;DHT22;20423;49.448;9.056;2022-11-14T05:19:32;3.00;99.90
34147;DHT22;20423;49.448;9.056;2022-11-14T05:26:10;3.00;99.90
34147;DHT22;20423;49.448;9.056;2022-11-14T05:28:54;3.00;99.90
34147;DHT22;20423;49.448;9.056;2022-11-14T05:31:56;3.00;99.90
34147;DHT22;20423;49.448;9.056;2022-11-14T05:34:41;3.00;99.90
34147;DHT22;20423;49.448;9.056;2022-11-14T05:37:25;3.10;99.90
34147;DHT22;20423;49.448;9.056;2022-11-14T05:40:09;3.10;99.90
34147;DHT22;20423;49.448;9.056;2022-11-14T05:42:54;3.10;99.90
34147;DHT22;20423;49.448;9.056;2022-11-14T05:45:39;3.00;99.90
34147;DHT22;20423;49.448;9.056;2022-11-14T05:48:23;3.00;99.90
34147;DHT22;20423;49.448;9.056;2022-11-14T05:51:10;3.00;99.90
34147;DHT22;20423;49.448;9.056;2022-11-14T05:57:49;3.10;99.90
34147;DHT22;20423;49.448;9.056;2022-11-14T06:00:33;3.10;99.90
34147;DHT22;20423;49.448;9.056;2022-11-14T06:03:45;3.00;99.90
34147;DHT22;20423;49.448;9.056;2022-11-14T06:06:29;3.00;99.90
34147;DHT22;20423;49.448;9.056;2022-11-14T06:09:14;2.90;99.90
34147;DHT22;20423;49.448;9.056;2022-11-14T06:12:16;2.90;99.90
34147;DHT22;20423;49.448;9.056;2022-11-14T06:15:00;2.80;99.90
34147;DHT22;20423;49.448;9.056;2022-11-14T06:17:44;2.80;99.90
34147;DHT22;20423;49.448;9.056;2022-11-14T06:20:28;2.70;99.90
34147;DHT22;20423;49.448;9.056;2022-11-14T06:26:46;2.60;99.90
34147;DHT22;20423;49.448;9.056;2022-11-14T06:29:30;2.60;99.90
34147;DHT22;20423;49.448;9.056;2022-11-14T06:32:14;2.60;99.90
34147;DHT22;20423;49.448;9.056;2022-11-14T06:34:58;2.60;99.90
34147;DHT22;20423;49.448;9.056;2022-11-14T06:37:42;2.70;99.90
34147;DHT22;20423;49.448;9.056;2022-11-14T06:40:26;2.60;99.90
34147;DHT22;20423;49.448;9.056;2022-11-14T06:43:10;2.70;99.90
34147;DHT22;20423;49.448;9.056;2022-11-14T06:45:54;2.60;99.90
34147;DHT22;20423;49.448;9.056;2022-11-14T06:48:39;2.70;99.90
34147;DHT22;20423;49.448;9.056;2022-11-14T06:51:24;2.60;99.90
34147;DHT22;20423;49.448;9.056;2022-11-14T06:54:11;2.50;99.90
34147;DHT22;20423;49.448;9.056;2022-11-14T06:56:55;2.60;99.90
34147;DHT22;20423;49.448;9.056;2022-11-14T06:59:39;2.70;99.90
34147;DHT22;20423;49.448;9.056;2022-11-14T07:02:24;2.70;99.90
34147;DHT22;20423;49.448;9.056;2022-11-14T07:05:08;2.80;99.90
34147;DHT22;20423;49.448;9.056;2022-11-14T07:07:52;2.90;99.90
34147;DHT22;20423;49.448;9.056;2022-11-14T07:10:36;2.90;99.90
34147;DHT22;20423;49.448;9.056;2022-11-14T07:13:21;2.90;99.90
34147;DHT22;20423;49.448;9.056;2022-11-14T07:16:05;2.90;99.90
34147;DHT22;20423;49.448;9.056;2022-11-14T07:18:50;2.90;99.90
34147;DHT22;20423;49.448;9.056;2022-11-14T07:21:34;2.80;99.90
34147;DHT22;20423;49.448;9.056;2022-11-14T07:24:18;2.80;99.90
34147;DHT22;20423;49.448;9.056;2022-11-14T07:27:02;2.80;99.90
34147;DHT22;20423;49.448;9.056;2022-11-14T07:29:51;2.80;99.90
34147;DHT22;20423;49.448;9.056;2022-11-14T07:32:35;2.80;99.90
34147;DHT22;20423;49.448;9.056;2022-11-14T07:35:19;2.90;99.90
34147;DHT22;20423;49.448;9.056;2022-11-14T07:38:12;3.00;99.90
34147;DHT22;20423;49.448;9.056;2022-11-14T07:41:01;2.90;99.90
34147;DHT22;20423;49.448;9.056;2022-11-14T07:43:46;2.90;99.90
34147;DHT22;20423;49.448;9.056;2022-11-14T07:46:30;2.90;99.90
34147;DHT22;20423;49.448;9.056;2022-11-14T07:49:14;3.00;99.90
34147;DHT22;20423;49.448;9.056;2022-11-14T07:51:59;3.10;99.90
34147;DHT22;20423;49.448;9.056;2022-11-14T07:54:43;3.20;99.90
34147;DHT22;20423;49.448;9.056;2022-11-14T07:57:27;3.40;99.90
34147;DHT22;20423;49.448;9.056;2022-11-14T08:03:42;3.90;99.90
34147;DHT22;20423;49.448;9.056;2022-11-14T08:06:27;4.00;99.90
34147;DHT22;20423;49.448;9.056;2022-11-14T08:09:11;4.10;99.90
34147;DHT22;20423;49.448;9.056;2022-11-14T08:11:56;4.10;99.90
34147;DHT22;20423;49.448;9.056;2022-11-14T08:14:40;4.20;99.90
34147;DHT22;20423;49.448;9.056;2022-11-14T08:17:24;4.20;99.90
34147;DHT22;20423;49.448;9.056;2022-11-14T08:20:08;4.20;99.90
34147;DHT22;20423;49.448;9.056;2022-11-14T08:23:03;4.10;99.90
34147;DHT22;20423;49.448;9.056;2022-11-14T08:25:48;4.20;99.90
34147;DHT22;20423;49.448;9.056;2022-11-14T08:28:32;4.20;99.90
34147;DHT22;20423;49.448;9.056;2022-11-14T08:31:16;4.30;99.90
34147;DHT22;20423;49.448;9.056;2022-11-14T08:34:00;4.40;99.90
34147;DHT22;20423;49.448;9.056;2022-11-14T08:36:44;4.40;99.90
34147;DHT22;20423;49.448;9.056;2022-11-14T08:39:28;4.50;99.90
34147;DHT22;20423;49.448;9.056;2022-11-14T08:42:12;4.50;99.90
34147;DHT22;20423;49.448;9.056;2022-11-14T08:44:56;4.50;99.90
34147;DHT22;20423;49.448;9.056;2022-11-14T08:51:23;4.60;99.90
34147;DHT22;20423;49.448;9.056;2022-11-14T08:54:07;4.80;99.90
34147;DHT22;20423;49.448;9.056;2022-11-14T08:56:51;4.90;99.90
34147;DHT22;20423;49.448;9.056;2022-11-14T08:59:35;4.90;99.90
34147;DHT22;20423;49.448;9.056;2022-11-14T09:02:19;4.80;99.90
34147;DHT22;20423;49.448;9.056;2022-11-14T09:05:04;4.80;99.90
34147;DHT22;20423;49.448;9.056;2022-11-14T09:07:48;5.00;99.90
34147;DHT22;20423;49.448;9.056;2022-11-14T09:10:33;5.30;99.90
34147;DHT22;20423;49.448;9.056;2022-11-14T09:13:54;5.60;99.90
34147;DHT22;20423;49.448;9.056;2022-11-14T09:16:39;5.70;99.90
34147;DHT22;20423;49.448;9.056;2022-11-14T09:19:57;5.80;99.90
34147;DHT22;20423;49.448;9.056;2022-11-14T09:22:41;5.80;99.90
34147;DHT22;20423;49.448;9.056;2022-11-14T09:25:26;5.90;99.90
34147;DHT22;20423;49.448;9.056;2022-11-14T09:28:10;6.00;99.90
34147;DHT22;20423;49.448;9.056;2022-11-14T09:31:06;6.10;99.90
34147;DHT22;20423;49.448;9.056;2022-11-14T09:33:50;6.30;99.90
34147;DHT22;20423;49.448;9.056;2022-11-14T09:37:12;6.70;99.90
34147;DHT22;20423;49.448;9.056;2022-11-14T09:39:57;7.00;99.90
34147;DHT22;20423;49.448;9.056;2022-11-14T09:43:09;7.10;99.90
34147;DHT22;20423;49.448;9.056;2022-11-14T09:46:31;7.20;99.90
34147;DHT22;20423;49.448;9.056;2022-11-14T09:49:24;7.20;99.90
34147;DHT22;20423;49.448;9.056;2022-11-14T09:52:16;7.10;99.90
34147;DHT22;20423;49.448;9.056;2022-11-14T09:55:32;7.10;99.90
34147;DHT22;20423;49.448;9.056;2022-11-14T09:58:19;6.80;99.90
34147;DHT22;20423;49.448;9.056;2022-11-14T10:07:20;6.20;99.90
34147;DHT22;20423;49.448;9.056;2022-11-14T10:13:34;6.20;99.90
34147;DHT22;20423;49.448;9.056;2022-11-14T10:25:29;6.50;99.90
34147;DHT22;20423;49.448;9.056;2022-11-14T10:40:43;6.70;99.90
34147;DHT22;20423;49.448;9.056;2022-11-14T10:43:55;6.60;99.90
34147;DHT22;20423;49.448;9.056;2022-11-14T10:46:45;6.70;99.90
34147;DHT22;20423;49.448;9.056;2022-11-14T10:49:31;6.70;99.90
34147;DHT22;20423;49.448;9.056;2022-11-14T10:52:21;6.60;99.90
34147;DHT22;20423;49.448;9.056;2022-11-14T10:55:14;6.60;99.90
34147;DHT22;20423;49.448;9.056;2022-11-14T10:57:59;6.50;99.90
34147;DHT22;20423;49.448;9.056;2022-11-14T11:00:43;6.40;99.90
34147;DHT22;20423;49.448;9.056;2022-11-14T11:03:43;6.30;99.90
34147;DHT22;20423;49.448;9.056;2022-11-14T11:06:28;6.40;99.90
34147;DHT22;20423;49.448;9.056;2022-11-14T11:09:15;6.50;99.90
34147;DHT22;20423;49.448;9.056;2022-11-14T11:12:45;6.50;99.90
34147;DHT22;20423;49.448;9.056;2022-11-14T11:15:31;6.50;99.90
34147;DHT22;20423;49.448;9.056;2022-11-14T11:18:34;6.50;99.90
34147;DHT22;20423;49.448;9.056;2022-11-14T11:21:22;6.60;99.90
34147;DHT22;20423;49.448;9.056;2022-11-14T11:24:07;6.70;99.90
34147;DHT22;20423;49.448;9.056;2022-11-14T11:27:26;6.70;99.90
34147;DHT22;20423;49.448;9.056;2022-11-14T11:30:20;6.80;99.90
34147;DHT22;20423;49.448;9.056;2022-11-14T11:33:32;6.90;99.90
34147;DHT22;20423;49.448;9.056;2022-11-14T11:36:19;6.90;99.90
34147;DHT22;20423;49.448;9.056;2022-11-14T11:39:07;6.80;99.90
34147;DHT22;20423;49.448;9.056;2022-11-14T11:41:54;6.70;99.90
34147;DHT22;20423;49.448;9.056;2022-11-14T11:44:44;6.70;99.90
34147;DHT22;20423;49.448;9.056;2022-11-14T11:51:05;6.90;99.90
34147;DHT22;20423;49.448;9.056;2022-11-14T11:54:16;7.20;99.90
34147;DHT22;20423;49.448;9.056;2022-11-14T11:57:04;7.40;99.90
34147;DHT22;20423;49.448;9.056;2022-11-14T11:59:58;7.50;99.90
34147;DHT22;20423;49.448;9.056;2022-11-14T12:03:12;7.70;99.90
34147;DHT22;20423;49.448;9.056;2022-11-14T12:06:10;7.80;99.90
34147;DHT22;20423;49.448;9.056;2022-11-14T12:09:19;7.90;99.90
34147;DHT22;20423;49.448;9.056;2022-11-14T12:12:14;8.00;99.90
34147;DHT22;20423;49.448;9.056;2022-11-14T12:15:21;8.20;99.90
34147;DHT22;20423;49.448;9.056;2022-11-14T12:28:10;8.30;99.90
34147;DHT22;20423;49.448;9.056;2022-11-14T12:31:00;8.30;99.90
34147;DHT22;20423;49.448;9.056;2022-11-14T12:33:58;8.20;99.90
34147;DHT22;20423;49.448;9.056;2022-11-14T12:36:44;8.20;99.90
34147;DHT22;20423;49.448;9.056;2022-11-14T12:39:30;8.10;99.90
34147;DHT22;20423;49.448;9.056;2022-11-14T12:42:18;8.10;99.90
34147;DHT22;20423;49.448;9.056;2022-11-14T12:45:03;8.10;99.90
34147;DHT22;20423;49.448;9.056;2022-11-14T12:50:59;8.30;99.90
34147;DHT22;20423;49.448;9.056;2022-11-14T12:53:43;8.30;99.90
34147;DHT22;20423;49.448;9.056;2022-11-14T12:59:29;8.20;99.90
34147;DHT22;20423;49.448;9.056;2022-11-14T13:02:21;8.10;99.90
34147;DHT22;20423;49.448;9.056;2022-11-14T13:08:27;8.00;99.90
34147;DHT22;20423;49.448;9.056;2022-11-14T13:14:56;8.00;99.90
34147;DHT22;20423;49.448;9.056;2022-11-14T13:18:33;8.00;99.90
34147;DHT22;20423;49.448;9.056;2022-11-14T13:21:37;7.90;99.90
34147;DHT22;20423;49.448;9.056;2022-11-14T13:31:20;8.20;99.90
34147;DHT22;20423;49.448;9.056;2022-11-14T13:52:56;8.80;99.90
34147;DHT22;20423;49.448;9.056;2022-11-14T14:05:20;8.60;99.90
34147;DHT22;20423;49.448;9.056;2022-11-14T14:11:36;8.60;99.90
34147;DHT22;20423;49.448;9.056;2022-11-14T14:23:46;8.80;99.90
34147;DHT22;20423;49.448;9.056;2022-11-14T14:27:00;8.70;99.90
34147;DHT22;20423;49.448;9.056;2022-11-14T14:30:11;8.70;99.90
34147;DHT22;20423;49.448;9.056;2022-11-14T14:35:52;8.90;99.90
34147;DHT22;20423;49.448;9.056;2022-11-14T14:38:36;8.90;99.90
34147;DHT22;20423;49.448;9.056;2022-11-14T14:41:21;8.90;99.90
34147;DHT22;20423;49.448;9.056;2022-11-14T14:44:31;8.90;99.90
34147;DHT22;20423;49.448;9.056;2022-11-14T14:50:20;9.00;99.90
34147;DHT22;20423;49.448;9.056;2022-11-14T14:53:05;8.90;99.90
34147;DHT22;20423;49.448;9.056;2022-11-14T14:55:56;9.00;99.90
34147;DHT22;20423;49.448;9.056;2022-11-14T14:58:41;9.00;99.90
34147;DHT22;20423;49.448;9.056;2022-11-14T15:01:50;8.90;99.90
34147;DHT22;20423;49.448;9.056;2022-11-14T15:04:36;9.00;99.90
34147;DHT22;20423;49.448;9.056;2022-11-14T15:07:24;8.90;99.90
34147;DHT22;20423;49.448;9.056;2022-11-14T15:10:20;8.90;99.90
34147;DHT22;20423;49.448;9.056;2022-11-14T15:13:05;9.00;99.90
34147;DHT22;20423;49.448;9.056;2022-11-14T15:15:50;8.90;99.90
34147;DHT22;20423;49.448;9.056;2022-11-14T15:18:35;9.00;99.90
34147;DHT22;20423;49.448;9.056;2022-11-14T15:24:15;9.10;99.90
34147;DHT22;20423;49.448;9.056;2022-11-14T15:30:04;9.00;99.90
34147;DHT22;20423;49.448;9.056;2022-11-14T15:36:15;9.10;99.90
34147;DHT22;20423;49.448;9.056;2022-11-14T15:45:38;9.10;99.90
34147;DHT22;20423;49.448;9.056;2022-11-14T15:48:25;9.10;99.90
34147;DHT22;20423;49.448;9.056;2022-11-14T15:51:09;9.10;99.90
34147;DHT22;20423;49.448;9.056;2022-11-14T15:53:55;9.20;99.90
34147;DHT22;20423;49.448;9.056;2022-11-14T15:56:39;9.10;99.90
34147;DHT22;20423;49.448;9.056;2022-11-14T15:59:23;9.10;99.90
34147;DHT22;20423;49.448;9.056;2022-11-14T16:02:28;9.20;99.90
34147;DHT22;20423;49.448;9.056;2022-11-14T16:05:16;9.20;99.90
34147;DHT22;20423;49.448;9.056;2022-11-14T16:08:03;9.20;99.90
34147;DHT22;20423;49.448;9.056;2022-11-14T16:10:48;9.30;99.90
34147;DHT22;20423;49.448;9.056;2022-11-14T16:13:32;9.20;99.90
34147;DHT22;20423;49.448;9.056;2022-11-14T16:16:16;9.20;99.90
34147;DHT22;20423;49.448;9.056;2022-11-14T16:22:48;9.20;99.90
34147;DHT22;20423;49.448;9.056;2022-11-14T16:25:33;9.20;99.90
34147;DHT22;20423;49.448;9.056;2022-11-14T16:28:17;9.20;99.90
34147;DHT22;20423;49.448;9.056;2022-11-14T16:31:01;9.20;99.90
34147;DHT22;20423;49.448;9.056;2022-11-14T16:33:45;9.30;99.90
34147;DHT22;20423;49.448;9.056;2022-11-14T16:36:29;9.30;99.90
34147;DHT22;20423;49.448;9.056;2022-11-14T16:39:15;9.30;99.90
34147;DHT22;20423;49.448;9.056;2022-11-14T16:42:00;9.30;99.90
34147;DHT22;20423;49.448;9.056;2022-11-14T16:44:45;9.20;99.90
34147;DHT22;20423;49.448;9.056;2022-11-14T16:47:29;9.20;99.90
34147;DHT22;20423;49.448;9.056;2022-11-14T16:50:15;9.20;99.90
34147;DHT22;20423;49.448;9.056;2022-11-14T16:53:02;9.20;99.90
34147;DHT22;20423;49.448;9.056;2022-11-14T16:55:46;9.20;99.90
34147;DHT22;20423;49.448;9.056;2022-11-14T16:58:30;9.20;99.90
34147;DHT22;20423;49.448;9.056;2022-11-14T17:01:14;9.20;99.90
34147;DHT22;20423;49.448;9.056;2022-11-14T17:03:59;9.20;99.90
34147;DHT22;20423;49.448;9.056;2022-11-14T17:06:43;9.20;99.90
34147;DHT22;20423;49.448;9.056;2022-11-14T17:09:27;9.20;99.90
34147;DHT22;20423;49.448;9.056;2022-11-14T17:12:11;9.20;99.90
34147;DHT22;20423;49.448;9.056;2022-11-14T17:14:55;9.20;99.90
34147;DHT22;20423;49.448;9.056;2022-11-14T17:17:39;9.20;99.90
34147;DHT22;20423;49.448;9.056;2022-11-14T17:20:23;9.20;99.90
34147;DHT22;20423;49.448;9.056;2022-11-14T17:23:07;9.10;99.90
34147;DHT22;20423;49.448;9.056;2022-11-14T17:25:51;9.00;99.90
34147;DHT22;20423;49.448;9.056;2022-11-14T17:28:36;9.00;99.90
34147;DHT22;20423;49.448;9.056;2022-11-14T17:31:21;8.90;99.90
34147;DHT22;20423;49.448;9.056;2022-11-14T17:34:08;8.80;99.90
34147;DHT22;20423;49.448;9.056;2022-11-14T17:36:53;8.80;99.90
34147;DHT22;20423;49.448;9.056;2022-11-14T17:39:37;8.80;99.90
34147;DHT22;20423;49.448;9.056;2022-11-14T17:42:21;8.80;99.90
34147;DHT22;20423;49.448;9.056;2022-11-14T17:45:06;8.80;99.90
34147;DHT22;20423;49.448;9.056;2022-11-14T17:47:50;8.90;99.90
34147;DHT22;20423;49.448;9.056;2022-11-14T17:51:03;9.00;99.90
34147;DHT22;20423;49.448;9.056;2022-11-14T17:53:48;9.00;99.90
34147;DHT22;20423;49.448;9.056;2022-11-14T17:56:32;9.00;99.90
34147;DHT22;20423;49.448;9.056;2022-11-14T17:59:16;8.90;99.90
34147;DHT22;20423;49.448;9.056;2022-11-14T18:05:39;8.90;99.90
34147;DHT22;20423;49.448;9.056;2022-11-14T18:08:23;8.90;99.90
34147;DHT22;20423;49.448;9.056;2022-11-14T18:11:10;8.90;99.90
34147;DHT22;20423;49.448;9.056;2022-11-14T18:13:55;8.90;99.90
34147;DHT22;20423;49.448;9.056;2022-11-14T18:16:40;8.80;99.90
34147;DHT22;20423;49.448;9.056;2022-11-14T18:19:24;8.70;99.90
34147;DHT22;20423;49.448;9.056;2022-11-14T18:22:08;8.80;99.90
34147;DHT22;20423;49.448;9.056;2022-11-14T18:24:52;8.70;99.90
34147;DHT22;20423;49.448;9.056;2022-11-14T18:27:36;8.60;99.90
34147;DHT22;20423;49.448;9.056;2022-11-14T18:30:20;8.60;99.90
34147;DHT22;20423;49.448;9.056;2022-11-14T18:33:04;8.60;99.90
34147;DHT22;20423;49.448;9.056;2022-11-14T18:35:58;8.60;99.90
34147;DHT22;20423;49.448;9.056;2022-11-14T18:38:42;8.60;99.90
34147;DHT22;20423;49.448;9.056;2022-11-14T18:41:27;8.70;99.90
34147;DHT22;20423;49.448;9.056;2022-11-14T18:44:11;8.70;99.90
34147;DHT22;20423;49.448;9.056;2022-11-14T18:46:55;8.70;99.90
34147;DHT22;20423;49.448;9.056;2022-11-14T18:53:04;8.80;99.90
34147;DHT22;20423;49.448;9.056;2022-11-14T18:55:49;8.70;99.90
34147;DHT22;20423;49.448;9.056;2022-11-14T18:58:36;8.70;99.90
34147;DHT22;20423;49.448;9.056;2022-11-14T19:01:25;8.60;99.90
34147;DHT22;20423;49.448;9.056;2022-11-14T19:04:11;8.50;99.90
34147;DHT22;20423;49.448;9.056;2022-11-14T19:06:56;8.40;99.90
34147;DHT22;20423;49.448;9.056;2022-11-14T19:09:40;8.30;99.90
34147;DHT22;20423;49.448;9.056;2022-11-14T19:12:27;8.30;99.90
34147;DHT22;20423;49.448;9.056;2022-11-14T19:15:11;8.20;99.90
34147;DHT22;20423;49.448;9.056;2022-11-14T19:21:47;8.00;99.90
34147;DHT22;20423;49.448;9.056;2022-11-14T19:24:33;7.90;99.90
34147;DHT22;20423;49.448;9.056;2022-11-14T19:27:17;7.90;99.90
34147;DHT22;20423;49.448;9.056;2022-11-14T19:30:01;7.90;99.90
34147;DHT22;20423;49.448;9.056;2022-11-14T19:32:45;7.80;99.90
34147;DHT22;20423;49.448;9.056;2022-11-14T19:35:29;7.70;99.90
34147;DHT22;20423;49.448;9.056;2022-11-14T19:38:14;7.70;99.90
34147;DHT22;20423;49.448;9.056;2022-11-14T19:41:03;7.60;99.90
34147;DHT22;20423;49.448;9.056;2022-11-14T19:43:48;7.50;99.90
34147;DHT22;20423;49.448;9.056;2022-11-14T19:46:32;7.50;99.90
34147;DHT22;20423;49.448;9.056;2022-11-14T19:49:18;7.50;99.90
34147;DHT22;20423;49.448;9.056;2022-11-14T19:52:03;7.50;99.90
34147;DHT22;20423;49.448;9.056;2022-11-14T19:54:47;7.50;99.90
34147;DHT22;20423;49.448;9.056;2022-11-14T19:57:32;7.50;99.90
34147;DHT22;20423;49.448;9.056;2022-11-14T20:00:16;7.60;99.90
34147;DHT22;20423;49.448;9.056;2022-11-14T20:03:01;7.60;99.90
34147;DHT22;20423;49.448;9.056;2022-11-14T20:05:45;7.70;99.90
34147;DHT22;20423;49.448;9.056;2022-11-14T20:08:29;7.80;99.90
34147;DHT22;20423;49.448;9.056;2022-11-14T20:11:13;7.90;99.90
34147;DHT22;20423;49.448;9.056;2022-11-14T20:13:57;8.00;99.90
34147;DHT22;20423;49.448;9.056;2022-11-14T20:16:41;8.10;99.90
34147;DHT22;20423;49.448;9.056;2022-11-14T20:19:25;8.10;99.90
34147;DHT22;20423;49.448;9.056;2022-11-14T20:22:10;8.10;99.90
34147;DHT22;20423;49.448;9.056;2022-11-14T20:24:55;8.10;99.90
34147;DHT22;20423;49.448;9.056;2022-11-14T20:27:39;8.10;99.90
34147;DHT22;20423;49.448;9.056;2022-11-14T20:30:23;8.10;99.90
34147;DHT22;20423;49.448;9.056;2022-11-14T20:33:07;8.00;99.90
34147;DHT22;20423;49.448;9.056;2022-11-14T20:35:52;8.00;99.90
34147;DHT22;20423;49.448;9.056;2022-11-14T20:38:36;8.00;99.90
34147;DHT22;20423;49.448;9.056;2022-11-14T20:41:21;7.90;99.90